Time;durP1;ratioP1;P1;durP2;ratioP2;P2;SDS_P1;SDS_P2;PMS_P1;PMS_P2;Temp;Humidity;BMP_temperature;BMP_pressure;BME280_temperature;BME280_humidity;BME280_pressure;Samples;Min_cycle;Max_cycle;Signal;HPM_P1;HPM_P2
2022/01/27 00:00:46;;;;;;;6.70;3.47;;;;;;;0.20;100.00;99994.00;4857347;29;20056;-54
2022/01/27 00:03:42;;;;;;;5.35;3.38;;;;;;;0.14;100.00;99991.22;4858218;29;20078;-56
2022/01/27 00:06:27;;;;;;;9.10;3.47;;;;;;;-0.05;100.00;99996.81;4865804;29;20060;-53
2022/01/27 00:09:21;;;;;;;7.85;3.40;;;;;;;-0.29;100.00;100006.59;4872954;29;20088;-51
2022/01/27 00:12:06;;;;;;;8.13;4.07;;;;;;;-0.18;100.00;99994.75;4873036;29;20060;-61
2022/01/27 00:15:03;;;;;;;8.13;4.40;;;;;;;-0.10;100.00;99994.09;4861404;29;20095;-51
2022/01/27 00:17:56;;;;;;;12.43;4.22;;;;;;;-0.06;100.00;99975.09;4856698;29;20068;-53
2022/01/27 00:20:42;;;;;;;10.65;4.55;;;;;;;0.17;100.00;99992.16;4855626;29;20072;-52
2022/01/27 00:23:26;;;;;;;6.28;3.58;;;;;;;0.21;100.00;99981.81;4870148;29;20909;-58
2022/01/27 00:26:12;;;;;;;9.57;4.07;;;;;;;0.17;100.00;99964.34;4848147;29;20528;-64
2022/01/27 00:28:57;;;;;;;7.93;4.00;;;;;;;0.31;100.00;99991.63;4857707;29;20056;-61
2022/01/27 00:31:42;;;;;;;8.70;4.00;;;;;;;0.32;100.00;99983.84;4855687;29;20479;-59
2022/01/27 00:34:26;;;;;;;6.00;3.90;;;;;;;0.34;100.00;99989.97;4860909;29;20160;-65
2022/01/27 00:37:11;;;;;;;6.90;4.13;;;;;;;0.32;100.00;99998.59;4852560;29;20048;-61
2022/01/27 00:39:56;;;;;;;9.27;4.15;;;;;;;0.33;100.00;99995.16;4840635;29;20122;-55
2022/01/27 00:42:41;;;;;;;6.85;3.28;;;;;;;0.24;100.00;100002.75;4855894;29;20068;-53
2022/01/27 00:45:29;;;;;;;6.97;3.35;;;;;;;0.24;100.00;99998.44;4873430;29;20060;-55
2022/01/27 00:48:17;;;;;;;8.60;3.30;;;;;;;0.20;100.00;99990.50;4871686;29;20055;-53
2022/01/27 00:51:04;;;;;;;5.40;3.40;;;;;;;0.17;100.00;99993.91;4860091;29;20564;-53
2022/01/27 00:54:01;;;;;;;6.53;3.15;;;;;;;0.25;100.00;99992.38;4868299;29;20056;-57
2022/01/27 00:59:50;;;;;;;7.03;3.67;;;;;;;-0.30;100.00;99977.09;4874480;29;20105;-55
2022/01/27 01:02:58;;;;;;;6.07;3.65;;;;;;;-0.11;100.00;99976.69;4868251;29;20066;-57
2022/01/27 01:14:57;;;;;;;8.93;4.60;;;;;;;-0.11;100.00;99984.50;4846939;29;20056;-55
2022/01/27 01:17:58;;;;;;;8.30;4.28;;;;;;;-0.09;100.00;99982.84;4869969;29;20112;-55
2022/01/27 01:29:54;;;;;;;7.95;4.05;;;;;;;0.08;100.00;99978.06;4864525;29;20210;-57
2022/01/27 01:32:48;;;;;;;10.18;4.10;;;;;;;0.13;100.00;99978.16;4856683;29;20080;-53
2022/01/27 01:35:48;;;;;;;6.68;3.30;;;;;;;0.16;100.00;99983.44;4853526;29;20472;-54
2022/01/27 01:38:33;;;;;;;8.05;4.25;;;;;;;-0.47;100.00;99991.38;4870678;29;20063;-57
2022/01/27 01:41:18;;;;;;;9.48;4.25;;;;;;;-1.06;100.00;99978.41;4858271;29;20418;-54
2022/01/27 01:44:03;;;;;;;11.25;4.55;;;;;;;-0.80;100.00;99980.03;4870370;29;20048;-60
2022/01/27 01:46:48;;;;;;;8.10;3.95;;;;;;;-0.56;100.00;99979.81;4853270;29;20220;-54
2022/01/27 01:49:34;;;;;;;6.93;3.85;;;;;;;-0.37;100.00;99974.25;4869683;29;20047;-57
2022/01/27 01:52:18;;;;;;;;;;;;;;;-0.16;100.00;99982.63;4858811;29;20079;-59
2022/01/27 01:55:06;;;;;;;6.75;3.53;;;;;;;-0.05;100.00;99987.28;4857496;29;19930;-56
2022/01/27 01:57:52;;;;;;;7.10;3.13;;;;;;;0.03;100.00;99990.06;4848867;29;20105;-57
2022/01/27 02:00:38;;;;;;;6.93;3.50;;;;;;;0.07;100.00;99988.44;4866012;29;20052;-57
2022/01/27 02:03:23;;;;;;;7.13;3.42;;;;;;;0.03;100.00;99980.53;4853940;29;20053;-55
2022/01/27 02:06:17;;;;;;;5.28;2.92;;;;;;;-0.25;100.00;99971.97;4857670;29;20116;-58
2022/01/27 02:18:17;;;;;;;;;;;;;;;-0.45;100.00;99975.78;4866602;29;20052;-55
2022/01/27 02:21:01;;;;;;;6.80;4.13;;;;;;;-0.60;100.00;99985.78;4864627;29;19930;-54
2022/01/27 02:23:48;;;;;;;9.63;5.22;;;;;;;-0.95;100.00;99982.19;4867821;29;20533;-54
2022/01/27 02:26:32;;;;;;;11.48;5.43;;;;;;;-0.90;100.00;99990.16;4872220;29;20059;-55
2022/01/27 02:29:19;;;;;;;8.27;5.25;;;;;;;-0.73;100.00;99991.50;4872848;29;20059;-56
2022/01/27 02:32:05;;;;;;;14.18;6.35;;;;;;;-0.80;100.00;99982.63;4857458;29;20568;-61
2022/01/27 02:34:51;;;;;;;13.95;6.63;;;;;;;-0.96;100.00;99977.84;4858765;29;20190;-51
2022/01/27 02:37:36;;;;;;;14.77;6.68;;;;;;;-0.97;100.00;99956.97;4851455;29;20056;-52
2022/01/27 02:40:27;;;;;;;12.57;7.28;;;;;;;-0.86;100.00;99976.38;4856494;29;20084;-57
2022/01/27 02:43:14;;;;;;;15.70;7.15;;;;;;;-1.07;100.00;99981.84;4853864;29;20059;-56
2022/01/27 02:46:04;;;;;;;13.40;7.03;;;;;;;-1.48;100.00;99986.66;4859167;29;20560;-58
2022/01/27 02:48:49;;;;;;;16.70;7.30;;;;;;;-1.75;100.00;99993.56;4858727;29;20063;-57
2022/01/27 02:51:36;;;;;;;16.98;7.20;;;;;;;-1.90;100.00;99967.13;4849644;29;20088;-55
2022/01/27 02:54:21;;;;;;;17.65;7.65;;;;;;;-1.79;100.00;99973.53;4866172;29;20144;-56
2022/01/27 02:57:09;;;;;;;15.70;7.32;;;;;;;-1.83;100.00;99980.34;4841864;29;20125;-53
2022/01/27 02:59:54;;;;;;;13.65;7.32;;;;;;;-2.12;100.00;99980.25;4857702;29;20140;-60
2022/01/27 03:02:39;;;;;;;;;;;;;;;-2.04;100.00;99977.06;4871262;29;20055;-56
2022/01/27 03:05:23;;;;;;;15.23;7.22;;;;;;;-1.93;100.00;99978.28;4853983;29;19927;-53
2022/01/27 03:08:08;;;;;;;15.77;7.65;;;;;;;-1.85;100.00;99950.88;4848559;29;20109;-56
2022/01/27 03:11:03;;;;;;;14.23;7.65;;;;;;;-1.48;100.00;99965.84;4866955;29;20161;-54
2022/01/27 03:13:48;;;;;;;15.23;6.60;;;;;;;-1.32;100.00;99973.28;4859594;29;20048;-60
2022/01/27 03:16:32;;;;;;;14.65;7.32;;;;;;;-1.54;100.00;99969.16;4860410;29;20068;-55
2022/01/27 03:19:17;;;;;;;12.50;7.40;;;;;;;-2.08;100.00;99937.97;4872304;29;20052;-55
2022/01/27 03:22:03;;;;;;;14.90;7.00;;;;;;;-1.64;100.00;99963.63;4874388;29;20096;-54
2022/01/27 03:24:48;;;;;;;13.90;7.38;;;;;;;-1.81;100.00;99962.22;4871293;29;20301;-55
2022/01/27 03:27:34;;;;;;;13.55;6.50;;;;;;;-1.80;100.00;99936.28;4876205;29;20078;-55
2022/01/27 03:30:18;;;;;;;10.70;6.10;;;;;;;-1.87;100.00;99973.31;4833908;29;20056;-54
2022/01/27 03:33:02;;;;;;;9.55;5.53;;;;;;;-1.94;100.00;99966.13;4872315;29;20136;-63
2022/01/27 03:35:48;;;;;;;13.77;6.22;;;;;;;-1.89;100.00;99940.31;4853994;29;20061;-57
2022/01/27 03:38:32;;;;;;;10.77;5.03;;;;;;;-1.75;100.00;99960.69;4854164;29;20052;-59
2022/01/27 03:41:22;;;;;;;14.73;5.68;;;;;;;-1.85;100.00;99968.16;4855915;29;20139;-53
2022/01/27 03:44:07;;;;;;;13.82;6.20;;;;;;;-1.76;100.00;99969.34;4863946;29;20535;-56
2022/01/27 03:46:54;;;;;;;10.82;5.45;;;;;;;-2.05;100.00;99974.44;4869778;29;20048;-56
2022/01/27 03:49:38;;;;;;;11.13;5.53;;;;;;;-2.41;100.00;99965.41;4856011;29;20048;-57
2022/01/27 03:52:23;;;;;;;9.93;5.43;;;;;;;-2.48;100.00;99963.44;4863588;29;20246;-55
2022/01/27 03:55:08;;;;;;;11.45;6.18;;;;;;;-2.46;100.00;99964.38;4865053;29;20060;-56
2022/01/27 03:57:53;;;;;;;12.45;5.88;;;;;;;-2.48;100.00;99959.13;4856188;29;20140;-56
2022/01/27 04:00:38;;;;;;;12.95;5.97;;;;;;;-2.58;100.00;99956.16;4860129;29;20061;-55
2022/01/27 04:03:23;;;;;;;9.77;5.63;;;;;;;-2.61;100.00;99948.28;4844307;29;20109;-53
2022/01/27 04:06:09;;;;;;;15.25;5.68;;;;;;;-2.26;100.00;99943.44;4859959;29;20072;-57
2022/01/27 04:08:54;;;;;;;9.02;5.70;;;;;;;-1.87;100.00;99956.81;4846804;29;20060;-59
2022/01/27 04:11:40;;;;;;;13.05;5.70;;;;;;;-1.95;100.00;99950.50;4854431;29;20055;-54
2022/01/27 04:14:24;;;;;;;12.23;5.43;;;;;;;-2.31;100.00;99950.19;4864286;29;20067;-58
2022/01/27 04:17:09;;;;;;;10.35;5.57;;;;;;;-2.67;100.00;99946.34;4874122;29;20063;-57
2022/01/27 04:19:54;;;;;;;14.43;5.50;;;;;;;-2.50;100.00;99955.59;4877659;29;20097;-56
2022/01/27 04:22:39;;;;;;;12.15;5.50;;;;;;;-2.69;100.00;99949.72;4863624;29;20055;-56
2022/01/27 04:25:24;;;;;;;12.02;5.10;;;;;;;-2.66;100.00;99942.94;4873736;29;20131;-64
2022/01/27 04:28:12;;;;;;;11.20;5.60;;;;;;;-2.61;100.00;99943.09;4873971;29;20533;-60
2022/01/27 04:30:59;;;;;;;10.55;5.05;;;;;;;-2.74;100.00;99930.50;4865430;29;20063;-58
2022/01/27 04:33:43;;;;;;;9.45;4.80;;;;;;;-2.75;100.00;99940.03;4862890;29;20071;-58
2022/01/27 04:36:33;;;;;;;9.48;5.15;;;;;;;-2.89;100.00;99935.19;4873989;29;20060;-59
2022/01/27 04:39:29;;;;;;;9.60;5.28;;;;;;;-2.84;100.00;99933.63;4872064;29;20079;-60
2022/01/27 04:42:24;;;;;;;10.63;5.72;;;;;;;-2.86;100.00;99932.66;4863759;29;20056;-61
2022/01/27 04:45:10;;;;;;;10.18;5.22;;;;;;;-2.66;100.00;99936.84;4859620;29;20068;-60
2022/01/27 04:48:05;;;;;;;10.00;5.40;;;;;;;-2.69;100.00;99935.03;4858105;29;20598;-60
2022/01/27 04:50:51;;;;;;;11.13;4.93;;;;;;;-2.60;100.00;99924.09;4857330;29;20078;-58
2022/01/27 04:53:42;;;;;;;8.88;5.10;;;;;;;-2.54;100.00;99921.72;4869920;29;20589;-61
2022/01/27 04:56:29;;;;;;;13.43;5.22;;;;;;;-2.39;100.00;99932.59;4866424;29;20060;-62
2022/01/27 04:59:19;;;;;;;10.80;5.82;;;;;;;-2.34;100.00;99939.69;4856296;29;20474;-56
2022/01/27 05:02:09;;;;;;;13.70;5.82;;;;;;;-2.60;100.00;99903.34;4858903;29;20133;-55
2022/01/27 05:04:54;;;;;;;15.48;5.75;;;;;;;-2.28;100.00;99933.84;4858093;29;20129;-64
2022/01/27 05:07:39;;;;;;;12.15;5.93;;;;;;;-2.35;100.00;99937.06;4865466;29;20198;-55
2022/01/27 05:10:28;;;;;;;14.05;6.15;;;;;;;-2.61;100.00;99936.16;4882943;29;20056;-61
2022/01/27 05:13:19;;;;;;;11.63;4.85;;;;;;;-2.76;100.00;99938.25;4843714;29;20101;-57
2022/01/27 05:16:03;;;;;;;10.95;6.10;;;;;;;-2.74;100.00;99935.69;4866844;29;20124;-57
2022/01/27 05:18:48;;;;;;;;;;;;;;;-2.48;100.00;99935.78;4861830;29;20067;-56
2022/01/27 05:21:34;;;;;;;18.63;5.68;;;;;;;-2.62;100.00;99925.72;4866343;29;19930;-56
2022/01/27 05:24:19;;;;;;;14.75;5.75;;;;;;;-2.52;100.00;99933.00;4857607;29;20101;-60
2022/01/27 05:27:04;;;;;;;12.93;6.05;;;;;;;-2.72;100.00;99929.75;4848087;29;20059;-60
2022/01/27 05:29:49;;;;;;;14.50;6.00;;;;;;;-2.68;100.00;99939.41;4868855;29;20092;-55
2022/01/27 05:32:35;;;;;;;12.63;5.40;;;;;;;-2.43;100.00;99930.72;4858157;29;20044;-59
2022/01/27 05:35:20;;;;;;;10.30;5.65;;;;;;;-2.78;100.00;99908.78;4854414;29;20101;-57
2022/01/27 05:38:05;;;;;;;10.93;4.93;;;;;;;-2.79;100.00;99938.16;4867219;29;20155;-61
2022/01/27 05:40:50;;;;;;;11.32;5.28;;;;;;;-2.85;100.00;99927.53;4874134;29;20142;-57
2022/01/27 05:43:35;;;;;;;10.13;5.60;;;;;;;-2.72;100.00;99937.53;4871328;29;20637;-58
2022/01/27 05:46:19;;;;;;;7.78;4.68;;;;;;;-2.91;100.00;99934.22;4859380;29;20079;-61
2022/01/27 05:49:04;;;;;;;11.93;4.90;;;;;;;-2.73;100.00;99943.53;4869869;29;20239;-59
2022/01/27 05:51:49;;;;;;;9.35;5.38;;;;;;;-2.65;100.00;99930.84;4844931;29;20056;-62
2022/01/27 05:54:34;;;;;;;12.52;4.90;;;;;;;-2.95;100.00;99940.13;4853178;29;20052;-61
2022/01/27 05:57:18;;;;;;;9.07;5.05;;;;;;;-3.15;100.00;99942.03;4868691;29;20056;-57
2022/01/27 06:00:05;;;;;;;9.43;4.40;;;;;;;-3.12;100.00;99930.88;4852960;29;20108;-57
2022/01/27 06:02:56;;;;;;;9.25;4.22;;;;;;;-2.86;100.00;99925.78;4840314;29;20089;-56
2022/01/27 06:05:41;;;;;;;10.13;4.05;;;;;;;-2.92;100.00;99930.78;4859519;29;20056;-58
2022/01/27 06:08:30;;;;;;;7.82;4.22;;;;;;;-2.91;100.00;99922.16;4844914;29;20132;-54
2022/01/27 06:11:14;;;;;;;8.57;4.13;;;;;;;-3.04;100.00;99921.66;4856964;29;20996;-62
2022/01/27 06:13:59;;;;;;;7.90;4.38;;;;;;;-2.99;100.00;99926.19;4877388;29;20159;-56
2022/01/27 06:16:45;;;;;;;9.80;4.95;;;;;;;-2.98;100.00;99925.34;4844694;29;20113;-55
2022/01/27 06:19:30;;;;;;;7.60;4.38;;;;;;;-2.98;100.00;99919.28;4845059;29;20068;-52
2022/01/27 06:22:15;;;;;;;12.15;4.60;;;;;;;-2.93;100.00;99922.94;4855785;29;20104;-61
2022/01/27 06:25:00;;;;;;;7.50;4.15;;;;;;;-3.27;100.00;99913.06;4868131;29;20101;-56
2022/01/27 06:27:47;;;;;;;6.72;4.22;;;;;;;-3.10;100.00;99917.13;4858237;29;20055;-54
2022/01/27 06:30:34;;;;;;;7.35;4.25;;;;;;;-2.90;100.00;99902.25;4870236;29;20056;-65
2022/01/27 06:33:20;;;;;;;6.60;4.32;;;;;;;-2.89;100.00;99906.66;4871509;29;20386;-63
2022/01/27 06:36:05;;;;;;;10.25;5.22;;;;;;;-2.97;100.00;99895.13;4858100;29;20064;-55
2022/01/27 06:38:50;;;;;;;7.43;3.35;;;;;;;-2.83;100.00;99923.31;4877456;29;20055;-61
2022/01/27 06:41:35;;;;;;;6.55;3.58;;;;;;;-3.06;100.00;99915.53;4875108;29;20842;-62
2022/01/27 06:44:20;;;;;;;5.78;3.30;;;;;;;-2.96;100.00;99923.72;4869082;29;20056;-61
2022/01/27 06:47:05;;;;;;;;;;;;;;;-2.84;100.00;99926.75;4846741;29;20133;-59
2022/01/27 06:49:50;;;;;;;4.68;2.63;;;;;;;-2.91;100.00;99901.41;4869361;29;19983;-61
2022/01/27 06:52:42;;;;;;;;;;;;;;;-2.98;100.00;99914.97;4871981;29;20059;-55
2022/01/27 06:55:40;;;;;;;6.88;3.22;;;;;;;-2.97;100.00;99923.66;4860396;29;19977;-56
2022/01/27 06:58:25;;;;;;;6.15;3.03;;;;;;;-3.09;100.00;99903.34;4840397;29;20061;-55
2022/01/27 07:01:11;;;;;;;6.90;3.65;;;;;;;-2.96;100.00;99918.53;4870229;29;20577;-55
2022/01/27 07:03:56;;;;;;;6.88;3.40;;;;;;;-3.12;100.00;99924.00;4857280;29;20609;-57
2022/01/27 07:06:40;;;;;;;7.75;3.20;;;;;;;-2.92;100.00;99925.59;4853012;29;20201;-55
2022/01/27 07:09:26;;;;;;;5.93;2.88;;;;;;;-2.98;100.00;99927.94;4869093;29;20056;-55
2022/01/27 07:12:11;;;;;;;6.85;3.13;;;;;;;-3.15;100.00;99926.47;4853328;29;20056;-60
2022/01/27 07:14:56;;;;;;;7.93;3.33;;;;;;;-3.14;100.00;99917.84;4855037;29;20467;-57
2022/01/27 07:17:41;;;;;;;8.02;3.03;;;;;;;-3.24;100.00;99931.28;4851647;29;20148;-56
2022/01/27 07:20:25;;;;;;;;;;;;;;;-3.08;100.00;99920.69;4857533;29;20370;-55
2022/01/27 07:23:10;;;;;;;7.22;3.83;;;;;;;-2.98;100.00;99927.06;4842785;29;19976;-52
2022/01/27 07:25:56;;;;;;;6.18;3.28;;;;;;;-3.08;100.00;99918.09;4869617;29;20433;-55
2022/01/27 07:28:41;;;;;;;7.80;3.03;;;;;;;-2.96;100.00;99920.22;4859156;29;20574;-53
2022/01/27 07:31:56;;;;;;;5.97;3.08;;;;;;;-3.02;100.00;99901.84;4847083;29;20055;-56
2022/01/27 07:35:14;;;;;;;3.85;2.83;;;;;;;-3.12;100.00;99926.59;4860026;29;20097;-52
2022/01/27 07:38:20;;;;;;;6.78;3.20;;;;;;;-3.02;100.00;99927.78;4861395;29;20060;-53
2022/01/27 07:41:13;;;;;;;5.32;2.63;;;;;;;-3.40;100.00;99935.88;4842437;29;20131;-56
2022/01/27 07:44:00;;;;;;;4.05;2.67;;;;;;;-3.12;100.00;99930.88;4855201;29;20477;-56
2022/01/27 07:46:44;;;;;;;4.53;2.55;;;;;;;-3.11;100.00;99912.78;4871293;29;20072;-51
2022/01/27 07:49:29;;;;;;;9.25;2.70;;;;;;;-3.11;100.00;99920.56;4863557;29;20064;-54
2022/01/27 07:52:14;;;;;;;;;;;;;;;-3.20;100.00;99927.13;4855334;29;20541;-54
2022/01/27 07:54:59;;;;;;;5.07;2.55;;;;;;;-3.16;100.00;99929.91;4857116;29;20757;-63
2022/01/27 07:57:44;;;;;;;16.90;3.65;;;;;;;-3.14;100.00;99914.38;4831131;29;20049;-54
2022/01/27 08:00:29;;;;;;;5.55;2.40;;;;;;;-3.18;100.00;99928.06;4862622;29;20055;-56
2022/01/27 08:03:14;;;;;;;11.15;3.33;;;;;;;-3.08;100.00;99920.69;4884040;29;20060;-58
2022/01/27 08:06:03;;;;;;;7.30;2.83;;;;;;;-2.90;100.00;99917.81;4862191;29;20802;-56
2022/01/27 08:08:49;;;;;;;8.88;2.95;;;;;;;-2.61;100.00;99928.38;4873467;29;20589;-61
2022/01/27 08:11:34;;;;;;;8.02;2.75;;;;;;;-2.19;100.00;99911.66;4857858;29;20060;-56
2022/01/27 08:14:19;;;;;;;9.50;2.95;;;;;;;-0.81;100.00;99913.22;4844308;29;20057;-60
2022/01/27 08:17:04;;;;;;;6.03;2.40;;;;;;;0.50;100.00;99912.94;4866870;29;20786;-52
2022/01/27 08:20:00;;;;;;;4.00;2.00;;;;;;;1.42;100.00;99921.81;4855696;29;20090;-52
2022/01/27 08:22:55;;;;;;;6.10;2.72;;;;;;;2.45;100.00;99919.19;4874888;29;20052;-59
2022/01/27 08:26:07;;;;;;;5.85;2.40;;;;;;;2.05;100.00;99911.63;4878382;23;20075;-54
2022/01/27 08:29:04;;;;;;;7.38;2.28;;;;;;;0.89;100.00;99914.69;4856093;29;20072;-52
2022/01/27 08:32:02;;;;;;;5.72;2.30;;;;;;;0.08;100.00;99910.28;4857933;29;20060;-55
2022/01/27 08:35:05;;;;;;;8.20;2.70;;;;;;;-0.13;100.00;99905.44;4863986;29;20187;-54
2022/01/27 08:37:57;;;;;;;6.43;2.50;;;;;;;-0.41;100.00;99900.38;4893657;23;20473;-54
2022/01/27 08:40:45;;;;;;;4.97;2.22;;;;;;;-0.85;100.00;99905.28;4893949;29;20069;-53
2022/01/27 08:43:31;;;;;;;3.00;1.85;;;;;;;-1.18;100.00;99907.81;4894191;29;20051;-56
2022/01/27 08:46:16;;;;;;;4.78;1.90;;;;;;;-1.48;100.00;99903.47;4873946;29;20077;-55
2022/01/27 08:49:02;;;;;;;3.58;1.60;;;;;;;-1.65;100.00;99896.88;4893291;29;20052;-54
2022/01/27 08:51:47;;;;;;;3.03;1.60;;;;;;;-1.94;100.00;99882.13;4878334;29;20056;-56
2022/01/27 08:54:35;;;;;;;4.95;1.55;;;;;;;-1.85;100.00;99901.50;4891732;29;20055;-53
2022/01/27 08:57:21;;;;;;;4.30;1.38;;;;;;;-1.44;100.00;99890.59;4892270;29;20151;-57
2022/01/27 09:00:09;;;;;;;3.25;1.40;;;;;;;-0.91;100.00;99887.75;4874893;29;20065;-54
2022/01/27 09:02:54;;;;;;;1.98;1.27;;;;;;;-0.56;100.00;99886.06;4877002;29;20144;-54
2022/01/27 09:05:40;;;;;;;;;;;;;;;-0.62;100.00;99889.44;4886804;29;20536;-55
2022/01/27 09:08:27;;;;;;;;;;;;;;;-0.80;100.00;99878.53;4880603;29;19927;-54
2022/01/27 09:11:13;;;;;;;7.20;1.67;;;;;;;-0.86;100.00;99883.56;4873057;29;19934;-54
2022/01/27 09:13:59;;;;;;;6.20;1.80;;;;;;;-0.57;100.00;99876.50;4887586;29;20171;-54
2022/01/27 09:16:46;;;;;;;7.47;1.85;;;;;;;-0.57;100.00;99871.31;4892630;29;20080;-52
2022/01/27 09:19:39;;;;;;;4.30;2.00;;;;;;;-0.54;100.00;99871.41;4885395;29;20051;-55
2022/01/27 09:22:25;;;;;;;5.22;2.45;;;;;;;-0.97;100.00;99858.09;4891400;29;20058;-56
2022/01/27 09:25:24;;;;;;;6.53;2.15;;;;;;;-0.97;100.00;99850.28;4882726;29;20063;-51
2022/01/27 09:28:08;;;;;;;2.83;1.55;;;;;;;-1.03;100.00;99866.63;4837094;29;20117;-56
2022/01/27 09:31:12;;;;;;;5.40;2.20;;;;;;;-1.17;100.00;99870.59;4881762;23;20109;-52
2022/01/27 09:34:12;;;;;;;3.22;1.88;;;;;;;-1.10;100.00;99869.88;4860353;29;20056;-57
2022/01/27 09:36:57;;;;;;;3.30;1.40;;;;;;;-1.44;100.00;99861.09;4872228;29;20104;-55
2022/01/27 09:39:43;;;;;;;4.60;1.80;;;;;;;-1.41;100.00;99867.28;4872559;29;20064;-59
2022/01/27 09:42:32;;;;;;;3.58;1.83;;;;;;;-1.28;100.00;99856.41;4859278;29;20051;-57
2022/01/27 09:45:19;;;;;;;2.60;1.48;;;;;;;-1.20;100.00;99862.69;4851851;29;20064;-57
2022/01/27 09:48:16;;;;;;;2.58;1.40;;;;;;;-1.25;100.00;99861.69;4868645;29;20144;-59
2022/01/27 09:51:23;;;;;;;2.13;1.42;;;;;;;-0.96;100.00;99860.75;4881625;23;20064;-55
2022/01/27 09:54:08;;;;;;;2.38;1.30;;;;;;;-0.70;100.00;99866.63;4872362;29;20132;-52
2022/01/27 09:56:56;;;;;;;2.95;1.30;;;;;;;-1.05;100.00;99859.63;4855122;29;20101;-58
2022/01/27 09:59:45;;;;;;;2.15;1.30;;;;;;;-1.15;100.00;99871.50;4843920;29;20494;-55
2022/01/27 10:03:11;;;;;;;3.95;1.45;;;;;;;-0.96;100.00;99868.56;4859161;29;20089;-57
2022/01/27 10:06:14;;;;;;;3.63;1.88;;;;;;;-0.81;100.00;99870.69;4864538;29;20055;-57
2022/01/27 10:09:17;;;;;;;3.78;1.50;;;;;;;-0.45;100.00;99869.00;4851348;29;20368;-56
2022/01/27 10:12:05;;;;;;;2.25;1.02;;;;;;;-0.06;100.00;99860.44;4843028;29;20205;-55
2022/01/27 10:15:03;;;;;;;2.80;1.20;;;;;;;0.50;100.00;99879.94;4847723;29;20072;-54
2022/01/27 10:18:08;;;;;;;3.85;1.40;;;;;;;0.56;100.00;99867.03;4875080;29;20470;-55
2022/01/27 10:21:30;;;;;;;3.67;1.57;;;;;;;0.43;100.00;99858.91;4871491;29;20075;-54
2022/01/27 10:24:41;;;;;;;5.80;1.67;;;;;;;-0.03;100.00;99855.28;4841903;29;20402;-61
2022/01/27 10:33:15;;;;;;;4.80;1.55;;;;;;;-0.70;100.00;99833.66;4850919;29;20057;-54
2022/01/27 10:36:29;;;;;;;2.97;1.52;;;;;;;-0.97;100.00;99847.69;4832851;29;20062;-52
2022/01/27 10:39:16;;;;;;;4.07;1.75;;;;;;;-1.03;100.00;99842.34;4845279;29;20053;-54
2022/01/27 10:42:08;;;;;;;4.70;1.70;;;;;;;-1.21;100.00;99850.53;4836465;29;20106;-52
2022/01/27 10:44:56;;;;;;;3.10;1.45;;;;;;;-1.57;100.00;99848.59;4841932;29;20052;-53
2022/01/27 10:47:44;;;;;;;2.45;1.50;;;;;;;-1.97;100.00;99817.97;4885571;23;20068;-56
2022/01/27 10:50:31;;;;;;;3.88;1.60;;;;;;;-1.69;100.00;99848.25;4869844;29;20063;-56
2022/01/27 10:53:17;;;;;;;3.97;1.83;;;;;;;-1.73;100.00;99849.91;4854632;29;20051;-53
2022/01/27 10:56:05;;;;;;;4.20;1.85;;;;;;;-1.84;100.00;99847.78;4865185;29;20059;-53
2022/01/27 10:58:51;;;;;;;2.83;1.77;;;;;;;-2.13;100.00;99807.94;4871717;29;20055;-54
2022/01/27 11:01:44;;;;;;;3.33;1.70;;;;;;;-2.22;100.00;99828.44;4871047;29;20056;-53
2022/01/27 11:04:43;;;;;;;2.53;1.80;;;;;;;-2.03;100.00;99809.09;4871182;23;20080;-53
2022/01/27 11:07:28;;;;;;;6.22;2.15;;;;;;;-1.70;100.00;99815.31;4861306;29;20499;-61
2022/01/27 11:10:16;;;;;;;5.35;2.20;;;;;;;-1.55;100.00;99790.63;4881435;29;20581;-59
2022/01/27 11:13:01;;;;;;;2.78;1.60;;;;;;;-1.49;100.00;99814.22;4878518;29;20093;-53
2022/01/27 11:15:47;;;;;;;3.80;1.98;;;;;;;-1.59;100.00;99819.06;4862019;29;20466;-56
2022/01/27 11:18:31;;;;;;;2.97;1.80;;;;;;;-1.27;100.00;99792.28;4872671;29;20812;-57
2022/01/27 11:21:34;;;;;;;4.63;2.17;;;;;;;-1.30;100.00;99800.84;4872488;29;20048;-60
2022/01/27 11:24:27;;;;;;;4.93;1.80;;;;;;;-1.51;100.00;99802.88;4873897;29;20052;-56
2022/01/27 11:27:14;;;;;;;3.20;1.70;;;;;;;-1.61;100.00;99799.97;4873085;29;20056;-52
2022/01/27 11:30:35;;;;;;;4.00;1.90;;;;;;;-1.67;100.00;99792.00;4875279;29;20417;-60
2022/01/27 11:33:31;;;;;;;3.03;1.70;;;;;;;-1.48;100.00;99783.88;4870536;29;20056;-54
2022/01/27 11:36:19;;;;;;;5.18;1.70;;;;;;;-1.41;100.00;99786.69;4882495;29;20055;-61
2022/01/27 11:39:18;;;;;;;3.53;1.70;;;;;;;-1.55;100.00;99782.81;4875639;29;20162;-59
2022/01/27 11:42:02;;;;;;;3.67;1.48;;;;;;;-1.77;100.00;99789.97;4875124;29;20096;-54
2022/01/27 11:44:48;;;;;;;;;;;;;;;-1.98;100.00;99792.81;4861846;29;20141;-56
2022/01/27 11:47:49;;;;;;;2.67;1.40;;;;;;;-2.10;100.00;99789.88;4861808;29;19992;-58
2022/01/27 11:50:36;;;;;;;4.57;1.55;;;;;;;-2.20;100.00;99781.75;4849167;29;20864;-56
2022/01/27 11:53:33;;;;;;;2.85;1.23;;;;;;;-2.17;100.00;99790.50;4846472;29;20214;-56
2022/01/27 11:56:23;;;;;;;3.67;1.30;;;;;;;-1.91;100.00;99779.19;4846009;29;20120;-55
2022/01/27 11:59:09;;;;;;;2.90;1.58;;;;;;;-2.24;100.00;99786.00;4869157;29;20121;-55
2022/01/27 12:01:57;;;;;;;2.50;1.38;;;;;;;-2.40;100.00;99782.88;4871811;29;20590;-52
2022/01/27 12:04:42;;;;;;;2.42;1.30;;;;;;;-2.65;100.00;99776.03;4850416;29;20131;-53
2022/01/27 12:07:27;;;;;;;;;;;;;;;-2.64;100.00;99776.91;4858174;29;20088;-55
2022/01/27 12:10:41;;;;;;;3.28;1.58;;;;;;;-2.76;100.00;99772.22;4868933;29;20300;-54
2022/01/27 12:13:29;;;;;;;2.92;1.30;;;;;;;-2.93;100.00;99770.78;4866896;29;20072;-60
2022/01/27 12:19:11;;;;;;;3.95;1.58;;;;;;;-2.77;100.00;99773.03;4866508;29;20417;-58
2022/01/27 12:22:00;;;;;;;3.22;1.40;;;;;;;-3.22;100.00;99727.47;4871095;29;20544;-52
2022/01/27 12:24:59;;;;;;;3.85;1.60;;;;;;;-2.89;100.00;99769.19;4860373;29;20117;-55
2022/01/27 12:27:54;;;;;;;4.00;1.90;;;;;;;-2.81;100.00;99775.50;4847924;29;20153;-56
2022/01/27 12:30:40;;;;;;;3.13;1.80;;;;;;;-2.88;100.00;99765.75;4855627;29;20573;-53
2022/01/27 12:33:25;;;;;;;5.72;1.50;;;;;;;-2.87;100.00;99763.22;4874282;29;20096;-55
2022/01/27 12:36:10;;;;;;;4.43;1.25;;;;;;;-2.87;100.00;99765.81;4871885;29;20074;-59
2022/01/27 12:38:55;;;;;;;4.10;1.50;;;;;;;-3.05;100.00;99759.13;4859889;29;20091;-53
2022/01/27 12:41:48;;;;;;;6.55;1.77;;;;;;;-3.04;100.00;99751.41;4870849;29;20219;-54
2022/01/27 12:44:39;;;;;;;6.70;2.10;;;;;;;-3.02;100.00;99761.81;4872343;29;20060;-57
2022/01/27 12:47:42;;;;;;;3.63;1.85;;;;;;;-3.09;100.00;99754.69;4863015;29;20052;-54
2022/01/27 12:50:28;;;;;;;3.05;1.60;;;;;;;-3.08;100.00;99762.50;4873535;29;20160;-53
2022/01/27 12:53:17;;;;;;;3.88;1.88;;;;;;;-2.96;100.00;99760.31;4869570;29;20055;-52
2022/01/27 12:56:09;;;;;;;3.53;1.88;;;;;;;-2.94;100.00;99748.28;4875038;29;20055;-56
2022/01/27 12:58:58;;;;;;;9.43;2.00;;;;;;;-2.99;100.00;99738.56;4869119;29;20055;-54
2022/01/27 13:02:05;;;;;;;8.05;2.05;;;;;;;-2.91;100.00;99753.56;4873991;29;20572;-56
2022/01/27 13:04:59;;;;;;;4.53;1.73;;;;;;;-2.86;100.00;99746.81;4873265;29;20084;-53
2022/01/27 13:07:47;;;;;;;3.93;1.77;;;;;;;-2.92;100.00;99750.91;4871283;29;20532;-55
2022/01/27 13:10:33;;;;;;;5.25;1.90;;;;;;;-2.83;100.00;99741.72;4870316;29;20056;-58
2022/01/27 13:13:21;;;;;;;5.13;2.08;;;;;;;-2.65;100.00;99737.09;4870906;29;20121;-60
2022/01/27 13:16:21;;;;;;;3.42;1.80;;;;;;;-2.50;100.00;99737.56;4872671;29;20306;-55
2022/01/27 13:19:34;;;;;;;4.78;2.00;;;;;;;-2.66;100.00;99743.13;4871139;29;20147;-52
2022/01/27 13:23:15;;;;;;;4.93;2.15;;;;;;;-2.74;100.00;99747.19;4908264;23;20072;-54
2022/01/27 13:26:05;;;;;;;5.97;2.10;;;;;;;-2.82;100.00;99740.88;4847195;29;20056;-63
2022/01/27 13:28:58;;;;;;;4.10;2.42;;;;;;;-2.92;100.00;99732.78;4876634;29;20096;-62
2022/01/27 13:31:47;;;;;;;6.68;2.33;;;;;;;-2.99;100.00;99739.47;4859859;29;20097;-68
2022/01/27 13:34:33;;;;;;;5.72;2.40;;;;;;;-3.09;100.00;99728.75;4878413;29;20059;-55
2022/01/27 13:37:34;;;;;;;6.90;2.47;;;;;;;-3.13;100.00;99729.50;4865582;29;20091;-63
2022/01/27 13:43:36;;;;;;;3.97;2.42;;;;;;;-3.23;100.00;99730.91;4873424;29;20469;-63
2022/01/27 13:47:11;;;;;;;3.97;2.10;;;;;;;-3.30;100.00;99728.03;4899689;23;20169;-54
2022/01/27 13:50:22;;;;;;;7.47;2.60;;;;;;;-3.55;100.00;99710.78;4962861;23;20067;-67
2022/01/27 13:53:20;;;;;;;5.65;2.70;;;;;;;-3.45;100.00;99722.34;4893230;29;20108;-61